createdAt,value
2022-09-05T00:02:35.180Z,8.70
2022-09-05T00:05:20.869Z,8.70
2022-09-05T00:07:59.985Z,8.70
2022-09-05T00:10:37.311Z,8.60
2022-09-05T00:13:08.142Z,8.60
2022-09-05T00:15:40.727Z,8.60
2022-09-05T00:20:15.242Z,8.50
2022-09-05T00:24:28.428Z,8.40
2022-09-05T00:24:35.069Z,8.40
2022-09-05T00:27:08.820Z,8.40
2022-09-05T00:31:06.063Z,8.30
2022-09-05T00:32:53.571Z,8.20
2022-09-05T00:35:29.485Z,8.20
2022-09-05T00:37:58.641Z,8.30
2022-09-05T00:40:29.724Z,8.30
2022-09-05T00:43:01.161Z,8.30
2022-09-05T00:45:32.287Z,8.40
2022-09-05T00:48:03.355Z,8.40
2022-09-05T00:50:34.482Z,8.50
2022-09-05T00:53:07.868Z,8.50
2022-09-05T00:55:40.586Z,8.60
2022-09-05T00:58:33.873Z,8.50
2022-09-05T01:01:21.218Z,8.60
2022-09-05T01:03:54.558Z,8.60
2022-09-05T01:06:29.014Z,8.50
2022-09-05T01:09:07.947Z,8.50
2022-09-05T01:11:43.809Z,8.50
2022-09-05T01:14:18.398Z,8.50
2022-09-05T01:17:00.238Z,8.60
2022-09-05T01:19:32.590Z,8.50
2022-09-05T01:22:17.000Z,8.50
2022-09-05T01:24:55.334Z,8.40
2022-09-05T01:29:14.555Z,8.50
2022-09-05T01:30:42.469Z,8.60
2022-09-05T01:33:15.841Z,8.60
2022-09-05T01:36:03.606Z,8.70
2022-09-05T01:38:36.143Z,8.60
2022-09-05T01:41:18.791Z,8.50
2022-09-05T01:44:03.115Z,8.60
2022-09-05T01:46:38.867Z,8.60
2022-09-05T01:49:11.122Z,8.60
2022-09-05T01:51:43.388Z,8.60
2022-09-05T01:54:27.014Z,8.50
2022-09-05T01:57:04.653Z,8.50
2022-09-05T01:59:39.192Z,8.70
2022-09-05T02:02:21.783Z,8.70
2022-09-05T02:05:12.772Z,8.70
2022-09-05T02:08:07.704Z,8.80
2022-09-05T02:10:40.723Z,8.90
2022-09-05T02:13:14.661Z,9.00
2022-09-05T02:15:59.897Z,9.00
2022-09-05T02:18:45.562Z,9.10
2022-09-05T02:21:18.086Z,9.20
2022-09-05T02:23:49.987Z,9.20
2022-09-05T02:26:20.118Z,9.20
2022-09-05T02:28:52.635Z,9.30
2022-09-05T02:31:22.415Z,9.30
2022-09-05T02:34:01.775Z,9.40
2022-09-05T02:36:36.121Z,9.50
2022-09-05T02:42:05.922Z,9.40
2022-09-05T02:45:05.998Z,9.40
2022-09-05T02:45:25.495Z,9.60
2022-09-05T02:47:58.615Z,9.60
2022-09-05T02:56:31.657Z,9.60
2022-09-05T02:57:24.796Z,9.60
2022-09-05T02:57:34.200Z,9.50
2022-09-05T02:59:37.150Z,9.70
2022-09-05T03:02:25.351Z,9.60
2022-09-05T03:05:04.618Z,9.60
2022-09-05T03:07:52.116Z,9.60
2022-09-05T03:10:53.950Z,9.60
2022-09-05T03:13:48.896Z,9.50
2022-09-05T03:16:47.574Z,9.40
2022-09-05T03:19:46.353Z,9.40
2022-09-05T03:22:27.421Z,9.30
2022-09-05T03:25:17.697Z,9.20
2022-09-05T03:28:15.773Z,9.10
2022-09-05T03:30:51.554Z,9.10
2022-09-05T03:33:37.001Z,9.20
2022-09-05T03:36:25.798Z,9.00
2022-09-05T03:39:03.927Z,8.90
2022-09-05T03:41:41.553Z,8.80
2022-09-05T03:44:18.531Z,9.10
2022-09-05T03:47:00.057Z,8.90
2022-09-05T03:51:17.093Z,8.80
2022-09-05T03:57:05.649Z,8.90
2022-09-05T03:57:15.711Z,8.80
2022-09-05T03:58:55.262Z,8.80
2022-09-05T04:02:47.807Z,8.80
2022-09-05T04:08:10.606Z,8.80
2022-09-05T04:08:14.409Z,8.80
2022-09-05T04:09:53.359Z,8.90
2022-09-05T04:12:23.611Z,8.90
2022-09-05T04:14:54.543Z,8.80
2022-09-05T04:17:27.424Z,8.90
2022-09-05T04:19:59.328Z,8.70
2022-09-05T04:22:33.102Z,8.70
2022-09-05T04:25:05.838Z,8.70
2022-09-05T04:27:38.817Z,8.80
2022-09-05T04:30:37.852Z,9.30
2022-09-05T04:33:12.520Z,9.50
2022-09-05T04:35:47.242Z,9.80
2022-09-05T04:38:16.378Z,10.00
2022-09-05T04:41:00.503Z,9.90
2022-09-05T04:43:33.371Z,10.00
2022-09-05T04:46:07.593Z,10.10
2022-09-05T04:48:38.091Z,10.00
2022-09-05T04:51:07.907Z,10.20
2022-09-05T04:53:58.278Z,10.30
2022-09-05T04:56:27.948Z,10.20
2022-09-05T05:00:08.959Z,10.10
2022-09-05T05:06:08.547Z,10.20
2022-09-05T05:06:09.091Z,10.30
2022-09-05T05:07:35.611Z,10.30
2022-09-05T05:12:06.842Z,10.30
2022-09-05T05:18:00.728Z,10.20
2022-09-05T05:18:13.109Z,10.30
2022-09-05T05:18:55.952Z,10.20
2022-09-05T05:21:32.262Z,10.10
2022-09-05T05:24:02.326Z,10.20
2022-09-05T05:26:35.569Z,10.10
2022-09-05T05:29:07.459Z,10.10
2022-09-05T05:31:37.413Z,10.00
2022-09-05T05:34:16.257Z,10.10
2022-09-05T05:37:00.376Z,10.20
2022-09-05T05:39:29.867Z,10.10
2022-09-05T05:41:58.824Z,10.10
2022-09-05T05:44:37.942Z,10.30
2022-09-05T05:47:09.674Z,10.30
2022-09-05T05:49:46.789Z,10.10
2022-09-05T05:52:27.843Z,10.10
2022-09-05T05:55:26.027Z,10.10
2022-09-05T05:58:05.226Z,10.40
2022-09-05T06:00:51.470Z,10.70
2022-09-05T06:03:38.070Z,11.20
2022-09-05T06:06:32.732Z,11.50
2022-09-05T06:14:52.969Z,12.00
2022-09-05T06:15:02.369Z,12.10
2022-09-05T06:15:42.951Z,12.00
2022-09-05T06:18:37.867Z,11.80
2022-09-05T06:22:10.059Z,11.80
2022-09-05T06:24:22.946Z,12.30
2022-09-05T06:27:24.412Z,12.50
2022-09-05T06:29:58.946Z,12.30
2022-09-05T06:32:43.150Z,12.30
2022-09-05T06:35:30.208Z,12.50
2022-09-05T06:38:03.783Z,12.70
2022-09-05T06:40:34.607Z,12.90
2022-09-05T06:43:08.871Z,13.10
2022-09-05T06:45:58.895Z,13.30
2022-09-05T06:48:44.560Z,13.20
2022-09-05T06:51:34.079Z,12.90
2022-09-05T06:54:23.970Z,13.30
2022-09-05T06:57:01.623Z,13.50
2022-09-05T06:59:53.857Z,13.70
2022-09-05T07:02:50.005Z,13.80
2022-09-05T07:05:38.039Z,13.60
2022-09-05T07:08:34.857Z,13.70
2022-09-05T07:11:15.942Z,13.80
2022-09-05T07:13:49.339Z,14.00
2022-09-05T07:16:37.536Z,14.20
2022-09-05T07:19:14.354Z,14.30
2022-09-05T07:21:48.874Z,14.00
2022-09-05T07:24:28.186Z,13.80
2022-09-05T07:27:09.934Z,14.00
2022-09-05T07:29:52.484Z,14.10
2022-09-05T07:32:30.951Z,14.10
2022-09-05T07:35:01.707Z,14.00
2022-09-05T07:37:35.982Z,13.90
2022-09-05T07:40:23.279Z,14.00
2022-09-05T07:43:08.737Z,14.00
2022-09-05T07:45:41.923Z,13.90
2022-09-05T07:48:22.823Z,13.80
2022-09-05T07:55:40.579Z,13.90
2022-09-05T07:57:03.980Z,14.00
2022-09-05T07:57:22.392Z,13.90
2022-09-05T07:59:40.431Z,13.80
2022-09-05T08:02:10.287Z,13.60
2022-09-05T08:04:39.478Z,13.60
2022-09-05T08:07:46.987Z,13.80
2022-09-05T08:10:08.188Z,13.90
2022-09-05T08:13:22.619Z,14.10
2022-09-05T08:16:00.631Z,13.80
2022-09-05T08:18:18.866Z,13.60
2022-09-05T08:20:48.139Z,13.60
2022-09-05T08:23:23.920Z,13.50
2022-09-05T08:25:58.656Z,13.50
2022-09-05T08:28:39.030Z,13.40
2022-09-05T08:31:10.842Z,13.40
2022-09-05T08:33:39.653Z,13.60
2022-09-05T08:36:12.091Z,13.70
2022-09-05T08:38:43.178Z,13.70
2022-09-05T08:41:15.697Z,13.50
2022-09-05T08:46:36.772Z,13.30
2022-09-05T08:46:49.316Z,13.20
2022-09-05T08:49:37.826Z,13.20
2022-09-05T08:52:14.800Z,13.30
2022-09-05T08:54:54.852Z,13.30
2022-09-05T08:57:55.249Z,13.40
2022-09-05T09:00:27.674Z,13.40
2022-09-05T09:03:12.233Z,13.40
2022-09-05T09:06:12.577Z,13.30
2022-09-05T09:08:46.551Z,13.40
2022-09-05T09:11:23.705Z,13.40
2022-09-05T09:13:55.665Z,13.50
2022-09-05T09:16:30.736Z,13.50
2022-09-05T09:19:06.505Z,13.40
2022-09-05T09:21:40.904Z,13.40
2022-09-05T09:24:15.123Z,13.50
2022-09-05T09:26:54.120Z,13.60
2022-09-05T09:29:27.987Z,13.70
2022-09-05T09:32:01.082Z,13.70
2022-09-05T09:34:39.620Z,13.60
2022-09-05T09:37:48.211Z,13.50
2022-09-05T09:40:32.131Z,13.60
2022-09-05T09:43:07.147Z,14.10
2022-09-05T09:45:53.426Z,14.20
2022-09-05T09:48:36.409Z,14.30
2022-09-05T09:51:22.850Z,14.00
2022-09-05T09:53:58.616Z,14.20
2022-09-05T09:56:33.783Z,14.10
2022-09-05T09:59:10.193Z,14.40
2022-09-05T10:01:40.481Z,14.00
2022-09-05T10:10:36.376Z,13.80
2022-09-05T10:10:44.577Z,14.10
2022-09-05T10:11:17.906Z,14.00
2022-09-05T10:13:35.272Z,14.00
2022-09-05T10:16:19.284Z,13.70
2022-09-05T10:18:55.713Z,13.70
2022-09-05T10:21:36.418Z,13.90
2022-09-05T10:24:35.544Z,13.80
2022-09-05T10:31:51.387Z,14.30
2022-09-05T10:35:18.285Z,14.30
2022-09-05T10:36:30.626Z,13.80
2022-09-05T10:39:27.665Z,13.90
2022-09-05T10:42:10.617Z,14.00
2022-09-05T10:44:44.590Z,14.10
2022-09-05T10:47:25.173Z,14.20
2022-09-05T10:50:03.505Z,13.90
2022-09-05T10:52:35.851Z,14.00
2022-09-05T10:55:17.891Z,14.50
2022-09-05T10:58:06.007Z,13.70
2022-09-05T11:02:21.917Z,13.90
2022-09-05T11:03:43.147Z,14.00
2022-09-05T11:06:14.447Z,13.90
2022-09-05T11:08:49.691Z,13.80
2022-09-05T11:11:28.393Z,13.90
2022-09-05T11:14:05.265Z,13.80
2022-09-05T11:16:38.523Z,14.20
2022-09-05T11:19:09.178Z,14.40
2022-09-05T11:21:49.693Z,14.20
2022-09-05T11:24:27.650Z,14.10
2022-09-05T11:27:24.275Z,13.90
2022-09-05T11:29:48.051Z,14.20
2022-09-05T11:35:37.172Z,14.80
2022-09-05T11:39:52.062Z,14.20
2022-09-05T11:40:08.820Z,14.70
2022-09-05T11:41:42.278Z,14.30
2022-09-05T11:44:25.611Z,14.50
2022-09-05T11:47:28.241Z,15.00
2022-09-05T11:50:02.099Z,14.80
2022-09-05T11:52:58.287Z,14.30
2022-09-05T11:55:41.122Z,14.00
2022-09-05T11:58:44.044Z,14.30
2022-09-05T12:01:38.386Z,14.30
2022-09-05T12:04:14.673Z,14.30
2022-09-05T12:06:59.476Z,14.50
2022-09-05T12:09:37.767Z,14.30
2022-09-05T12:12:32.794Z,14.00
2022-09-05T12:15:09.215Z,14.40
2022-09-05T12:17:47.406Z,14.20
2022-09-05T12:20:22.200Z,14.00
2022-09-05T12:22:54.815Z,14.10
2022-09-05T12:27:43.215Z,14.30
2022-09-05T12:29:27.198Z,14.80
2022-09-05T12:32:31.114Z,15.20
2022-09-05T12:36:05.481Z,15.20
2022-09-05T12:40:42.942Z,14.60
2022-09-05T12:41:33.759Z,14.40
2022-09-05T12:44:37.558Z,14.20
2022-09-05T12:45:50.377Z,14.50
2022-09-05T12:48:23.124Z,14.30
2022-09-05T12:50:56.959Z,14.10
2022-09-05T12:53:25.930Z,14.50
2022-09-05T12:56:24.839Z,15.20
2022-09-05T13:02:58.518Z,14.90
2022-09-05T13:03:03.378Z,15.70
2022-09-05T13:04:32.035Z,15.30
2022-09-05T13:07:03.254Z,15.50
2022-09-05T13:10:34.047Z,14.90
2022-09-05T13:14:53.082Z,15.60
2022-09-05T13:15:24.184Z,15.80
2022-09-05T13:17:59.328Z,15.90
2022-09-05T13:20:32.654Z,15.10
2022-09-05T13:23:05.047Z,14.90
2022-09-05T13:25:36.239Z,14.40
2022-09-05T13:28:06.462Z,14.70
2022-09-05T13:36:54.486Z,14.80
2022-09-05T13:38:10.675Z,15.50
2022-09-05T13:38:29.378Z,14.70
2022-09-05T13:39:10.027Z,15.20
2022-09-05T13:41:43.214Z,15.50
2022-09-05T13:44:26.761Z,15.40
2022-09-05T13:46:59.662Z,15.50
2022-09-05T13:49:32.234Z,15.10
2022-09-05T13:52:10.008Z,15.30
2022-09-05T13:54:41.882Z,15.60
2022-09-05T13:57:32.596Z,15.30
2022-09-05T14:00:27.722Z,15.30
2022-09-05T14:06:03.692Z,14.80
2022-09-05T14:11:56.636Z,15.20
2022-09-05T14:20:43.030Z,15.00
2022-09-05T14:23:15.255Z,14.80
2022-09-05T14:25:45.644Z,15.10
2022-09-05T14:28:19.171Z,14.90
2022-09-05T14:33:19.161Z,15.20
2022-09-05T14:37:41.284Z,15.20
2022-09-05T14:37:49.518Z,15.30
2022-09-05T14:39:41.128Z,15.30
2022-09-05T14:42:22.182Z,15.50
2022-09-05T14:45:03.322Z,15.10
2022-09-05T14:47:49.473Z,15.30
2022-09-05T14:50:27.875Z,14.90
2022-09-05T14:56:04.894Z,15.10
2022-09-05T15:02:41.007Z,15.20
2022-09-05T15:02:58.393Z,15.10
2022-09-05T15:04:41.001Z,15.50
2022-09-05T15:07:15.814Z,15.60
2022-09-05T15:12:16.353Z,15.80
2022-09-05T15:12:46.035Z,15.50
2022-09-05T15:15:24.072Z,15.80
2022-09-05T15:17:54.738Z,15.30
2022-09-05T15:20:36.046Z,15.30
2022-09-05T15:23:16.369Z,15.80
2022-09-05T15:25:48.372Z,15.20
2022-09-05T15:28:20.832Z,15.20
2022-09-05T15:30:59.144Z,15.60
2022-09-05T15:33:28.434Z,16.30
2022-09-05T15:36:00.008Z,15.90
2022-09-05T15:38:55.279Z,15.70
2022-09-05T15:41:23.033Z,15.70
2022-09-05T15:44:00.258Z,15.70
2022-09-05T15:46:47.188Z,16.40
2022-09-05T15:49:25.694Z,16.30
2022-09-05T15:51:55.923Z,15.90
2022-09-05T15:54:30.720Z,16.50
2022-09-05T15:57:09.158Z,16.70
2022-09-05T15:59:49.376Z,16.70
2022-09-05T16:02:20.034Z,15.70
2022-09-05T16:10:30.439Z,16.00
2022-09-05T16:10:45.591Z,16.30
2022-09-05T16:10:57.982Z,16.70
2022-09-05T16:13:33.928Z,16.90
2022-09-05T16:23:13.865Z,16.80
2022-09-05T16:23:23.750Z,17.00
2022-09-05T16:23:31.434Z,17.00
2022-09-05T16:24:59.757Z,17.00
2022-09-05T16:27:43.926Z,17.00
2022-09-05T16:30:20.495Z,16.90
2022-09-05T16:32:51.554Z,16.80
2022-09-05T16:35:26.210Z,16.70
2022-09-05T16:37:57.920Z,16.60
2022-09-05T16:40:27.705Z,16.30
2022-09-05T16:42:58.177Z,15.80
2022-09-05T16:45:32.615Z,15.70
2022-09-05T16:48:05.308Z,15.50
2022-09-05T16:50:37.050Z,15.60
2022-09-05T16:53:28.340Z,15.60
2022-09-05T16:56:00.767Z,15.60
2022-09-05T16:58:31.831Z,15.40
2022-09-05T17:01:17.971Z,15.30
2022-09-05T17:03:53.998Z,15.40
2022-09-05T17:06:25.668Z,15.10
2022-09-05T17:09:12.222Z,15.00
2022-09-05T17:12:00.481Z,15.00
2022-09-05T17:14:34.039Z,14.80
2022-09-05T17:17:19.745Z,14.50
2022-09-05T17:20:06.832Z,14.50
2022-09-05T17:29:19.986Z,14.10
2022-09-05T17:29:28.324Z,13.90
2022-09-05T17:29:28.936Z,14.00
2022-09-05T17:34:47.967Z,13.80
2022-09-05T17:37:37.195Z,13.70
2022-09-05T17:40:20.194Z,13.40
2022-09-05T17:42:53.299Z,13.30
2022-09-05T17:45:24.088Z,13.40
2022-09-05T17:47:53.981Z,13.40
2022-09-05T17:50:45.455Z,13.10
2022-09-05T17:53:25.841Z,13.00
2022-09-05T17:56:30.719Z,13.00
2022-09-05T17:59:07.051Z,12.90
2022-09-05T18:01:35.938Z,12.90
2022-09-05T18:04:17.322Z,12.80
2022-09-05T18:07:00.474Z,12.70
2022-09-05T18:09:48.876Z,12.50
2022-09-05T18:13:14.295Z,12.40
2022-09-05T18:15:19.371Z,12.30
2022-09-05T18:18:02.655Z,12.30
2022-09-05T18:20:35.246Z,12.20
2022-09-05T18:23:37.262Z,12.00
2022-09-05T18:26:00.181Z,12.00
2022-09-05T18:28:34.762Z,11.80
2022-09-05T18:31:24.404Z,11.70
2022-09-05T18:34:32.060Z,11.70
2022-09-05T18:37:01.288Z,11.60
2022-09-05T18:39:43.734Z,11.60
2022-09-05T18:42:34.029Z,11.50
2022-09-05T18:45:15.367Z,11.50
2022-09-05T18:47:53.038Z,11.30
2022-09-05T18:50:32.065Z,11.30
2022-09-05T18:53:10.698Z,11.20
2022-09-05T18:56:12.182Z,11.20
2022-09-05T18:58:52.461Z,11.10
2022-09-05T19:01:29.002Z,11.10
2022-09-05T19:04:33.143Z,11.00
2022-09-05T19:07:10.066Z,10.90
2022-09-05T19:09:42.565Z,10.90
2022-09-05T19:12:34.533Z,10.80
2022-09-05T19:15:10.382Z,10.80
2022-09-05T19:17:45.487Z,10.80
2022-09-05T19:20:32.053Z,10.70
2022-09-05T19:23:10.395Z,10.70
2022-09-05T19:25:44.767Z,10.60
2022-09-05T19:36:46.172Z,10.50
2022-09-05T19:36:59.790Z,10.60
2022-09-05T19:37:08.196Z,10.50
2022-09-05T19:46:10.397Z,10.40
2022-09-05T19:47:35.918Z,10.40
2022-09-05T19:47:39.127Z,10.40
2022-09-05T19:48:26.479Z,10.30
2022-09-05T19:50:57.555Z,10.30
2022-09-05T19:53:26.536Z,10.40
2022-09-05T19:55:55.185Z,10.30
2022-09-05T19:58:24.575Z,10.20
2022-09-05T20:01:02.387Z,10.20
2022-09-05T20:03:38.759Z,10.20
2022-09-05T20:06:28.680Z,10.10
2022-09-05T20:09:25.351Z,10.00
2022-09-05T20:11:54.391Z,10.00
2022-09-05T20:14:27.058Z,10.00
2022-09-05T20:16:56.651Z,10.00
2022-09-05T20:19:28.513Z,10.00
2022-09-05T20:22:24.944Z,10.00
2022-09-05T20:24:50.916Z,9.90
2022-09-05T20:27:19.070Z,10.00
2022-09-05T20:29:54.802Z,10.00
2022-09-05T20:32:38.734Z,10.00
2022-09-05T20:36:11.754Z,9.90
2022-09-05T20:43:19.945Z,9.90
2022-09-05T20:43:28.948Z,9.80
2022-09-05T20:43:56.631Z,9.90
2022-09-05T20:46:51.849Z,9.80
2022-09-05T20:54:26.492Z,9.70
2022-09-05T20:54:28.948Z,9.80
2022-09-05T20:55:39.176Z,9.70
2022-09-05T20:57:49.699Z,9.60
2022-09-05T21:00:21.299Z,9.60
2022-09-05T21:02:55.168Z,9.50
2022-09-05T21:05:27.555Z,9.50
2022-09-05T21:08:10.381Z,9.60
2022-09-05T21:10:55.297Z,9.60
2022-09-05T21:13:26.205Z,9.50
2022-09-05T21:15:55.295Z,9.40
2022-09-05T21:18:32.965Z,9.40
2022-09-05T21:21:02.683Z,9.40
2022-09-05T21:23:59.838Z,9.40
2022-09-05T21:26:39.771Z,9.50
2022-09-05T21:29:09.294Z,9.30
2022-09-05T21:31:42.814Z,9.30
2022-09-05T21:34:15.269Z,9.30
2022-09-05T21:36:49.900Z,9.30
2022-09-05T21:39:30.874Z,9.20
2022-09-05T21:42:11.544Z,9.30
2022-09-05T21:47:44.821Z,9.40
2022-09-05T21:47:52.270Z,9.40
2022-09-05T21:50:30.613Z,9.30
2022-09-05T21:53:46.954Z,9.50
2022-09-05T21:59:14.523Z,9.30
2022-09-05T21:59:25.237Z,9.40
2022-09-05T22:01:39.127Z,9.60
2022-09-05T22:04:16.784Z,9.70
2022-09-05T22:06:48.927Z,9.80
2022-09-05T22:09:17.678Z,9.80
2022-09-05T22:11:50.727Z,9.80
2022-09-05T22:14:21.035Z,9.70
2022-09-05T22:16:50.523Z,9.70
2022-09-05T22:19:22.828Z,9.60
2022-09-05T22:21:52.324Z,9.60
2022-09-05T22:24:23.545Z,9.50
2022-09-05T22:27:11.542Z,9.50
2022-09-05T22:29:43.170Z,9.50
2022-09-05T22:32:32.341Z,9.50
2022-09-05T22:35:27.976Z,9.50
2022-09-05T22:37:59.297Z,9.40
2022-09-05T22:40:28.147Z,9.30
2022-09-05T22:42:56.875Z,9.30
2022-09-05T22:45:26.782Z,9.30
2022-09-05T22:47:54.963Z,9.30
2022-09-05T22:50:23.003Z,9.20
2022-09-05T22:52:51.136Z,9.20
2022-09-05T22:55:19.312Z,9.20
2022-09-05T22:57:47.382Z,9.20
2022-09-05T23:00:15.759Z,9.20
2022-09-05T23:02:48.970Z,9.20
2022-09-05T23:05:19.985Z,9.30
2022-09-05T23:07:48.011Z,9.30
2022-09-05T23:10:16.247Z,9.20
2022-09-05T23:12:44.215Z,9.20
2022-09-05T23:15:12.474Z,9.20
2022-09-05T23:17:40.664Z,9.10
2022-09-05T23:20:11.118Z,9.10
2022-09-05T23:22:39.473Z,9.20
2022-09-05T23:25:08.185Z,9.10
2022-09-05T23:27:36.811Z,9.10
2022-09-05T23:30:05.530Z,9.00
2022-09-05T23:32:33.591Z,9.10
2022-09-05T23:35:01.843Z,9.00
2022-09-05T23:37:31.361Z,9.00
2022-09-05T23:39:59.506Z,9.00
2022-09-05T23:42:27.872Z,9.00
2022-09-05T23:44:55.851Z,9.10
2022-09-05T23:47:25.123Z,9.10
2022-09-05T23:49:53.150Z,9.10
2022-09-05T23:52:21.354Z,9.10
2022-09-05T23:54:50.812Z,9.20
2022-09-05T23:57:21.859Z,9.10
2022-09-05T23:59:50.032Z,9.20
